Star Lake, Wisconsin
Current Conditions -  °F | °C
As of 12:10 PM on Thursday 29 Jan 2015 (Local Time) from KEGV Reporting Station
Overcast Overcast  
Wind Chill: 14°   Ceiling: 1800
Heat Index: 26°   Visibility: 10mi
Dew Point: 19°   Wind: 16mph
Humidity: 73%   Direction: 330°NNW
Pressure: 29.95"   Gusts: 29mph
Location:  46.04°N, 89.47°W
Report Text: KEGV 291810Z AUTO 33014G25KT 10SM OVC018 M03/M07 A2995 RMK AO2 T10311073
Loading
Personal Weather Stations






























Interactive Weather Map New forecast layout! Learn more

10-Day Weather Forecast

Advertisements
Track Severe Weather on mobile